Time;durP1;ratioP1;P1;durP2;ratioP2;P2;SDS_P1;SDS_P2;PMS_P1;PMS_P2;Temp;Humidity;BMP_temperature;BMP_pressure;BME280_temperature;BME280_humidity;BME280_pressure;Samples;Min_cycle;Max_cycle;Signal;HPM_P1;HPM_P2
2021/03/22 00:00:54;;;;;;;14.80;3.20;;;6.70;99.90;;;;;;4114605;28;20038;-67
2021/03/22 00:02:54;;;;;;;22.05;4.30;;;6.70;99.90;;;;;;4138206;28;20026;-67
2021/03/22 00:04:55;;;;;;;16.25;3.60;;;6.70;99.90;;;;;;4134213;28;20032;-67
2021/03/22 00:06:55;;;;;;;17.17;4.22;;;6.70;99.90;;;;;;4129787;28;20081;-67
2021/03/22 00:08:57;;;;;;;22.85;4.57;;;6.70;99.90;;;;;;4134073;28;20034;-67
2021/03/22 00:10:58;;;;;;;19.15;3.60;;;6.70;99.90;;;;;;4135854;28;20399;-67
2021/03/22 00:12:59;;;;;;;26.00;4.45;;;6.70;99.90;;;;;;4138625;28;20026;-67
2021/03/22 00:15:00;;;;;;;28.95;4.35;;;6.70;99.90;;;;;;4137292;28;20108;-67
2021/03/22 00:17:02;;;;;;;18.33;4.00;;;6.60;99.90;;;;;;4145483;28;20141;-67
2021/03/22 00:19:02;;;;;;;18.67;3.75;;;6.60;99.90;;;;;;4131930;28;20037;-67
2021/03/22 00:21:05;;;;;;;24.15;4.65;;;6.60;99.90;;;;;;4142946;28;20062;-67
2021/03/22 00:23:06;;;;;;;24.77;4.63;;;6.60;99.90;;;;;;4144583;28;20032;-67
2021/03/22 00:25:07;;;;;;;18.42;4.07;;;6.60;99.90;;;;;;4137637;28;20042;-67
2021/03/22 00:27:08;;;;;;;20.90;4.17;;;6.50;99.90;;;;;;4145024;28;20108;-67
2021/03/22 00:29:09;;;;;;;27.40;5.30;;;6.50;99.90;;;;;;4131127;28;20038;-66
2021/03/22 00:31:14;;;;;;;27.70;4.50;;;6.50;99.90;;;;;;4143725;28;20034;-67
2021/03/22 00:33:17;;;;;;;27.73;4.55;;;6.40;99.90;;;;;;4130992;28;20088;-67
2021/03/22 00:35:19;;;;;;;26.05;4.25;;;6.40;99.90;;;;;;4137306;28;20034;-67
2021/03/22 00:37:20;;;;;;;19.58;3.95;;;6.40;99.90;;;;;;4137572;28;20049;-67
2021/03/22 00:39:22;;;;;;;23.60;3.88;;;6.40;99.90;;;;;;4119749;28;20090;-67
2021/03/22 00:41:23;;;;;;;15.13;3.20;;;6.30;99.90;;;;;;4143037;28;20045;-67
2021/03/22 00:43:32;;;;;;;16.20;3.85;;;6.30;99.90;;;;;;4141017;28;20479;-67
2021/03/22 00:45:33;;;;;;;16.95;4.10;;;6.30;99.90;;;;;;4138983;28;20083;-67
2021/03/22 00:47:33;;;;;;;21.48;3.70;;;6.20;99.90;;;;;;4143557;28;20046;-67
2021/03/22 00:49:34;;;;;;;25.88;4.65;;;6.20;99.90;;;;;;4131164;28;20047;-67
2021/03/22 00:51:35;;;;;;;20.38;4.10;;;6.20;99.90;;;;;;4127728;28;20030;-67
2021/03/22 00:53:36;;;;;;;28.30;5.18;;;6.20;99.90;;;;;;4141956;28;20038;-67
2021/03/22 00:55:37;;;;;;;20.45;4.28;;;6.20;99.90;;;;;;4139317;28;20100;-67
2021/03/22 00:57:38;;;;;;;16.38;3.80;;;6.10;99.90;;;;;;4142660;28;20034;-67
2021/03/22 00:59:39;;;;;;;20.85;3.65;;;6.20;99.90;;;;;;4131149;28;20083;-67
2021/03/22 01:01:40;;;;;;;16.90;3.63;;;6.20;99.90;;;;;;4143719;28;20026;-67
2021/03/22 01:03:41;;;;;;;24.15;4.82;;;6.20;99.90;;;;;;4122519;28;20053;-67
2021/03/22 01:05:42;;;;;;;18.67;3.33;;;6.20;99.90;;;;;;4139383;28;20042;-67
2021/03/22 01:07:45;;;;;;;15.95;3.90;;;6.30;99.90;;;;;;4141452;28;20041;-67
2021/03/22 01:09:45;;;;;;;18.80;3.50;;;6.30;99.90;;;;;;4122335;28;20074;-67
2021/03/22 01:11:47;;;;;;;16.60;3.60;;;6.30;99.90;;;;;;4144190;28;20088;-67
2021/03/22 01:13:55;;;;;;;13.57;3.10;;;6.30;99.90;;;;;;4139056;28;20045;-67
2021/03/22 01:15:56;;;;;;;18.48;3.53;;;6.30;99.90;;;;;;4139318;28;20048;-67
2021/03/22 01:17:57;;;;;;;18.30;3.80;;;6.30;99.90;;;;;;4144956;28;20101;-67
2021/03/22 01:19:58;;;;;;;23.58;4.18;;;6.30;99.90;;;;;;4138995;28;20394;-67
2021/03/22 01:22:01;;;;;;;18.02;4.13;;;6.30;99.90;;;;;;4128081;28;20030;-67
2021/03/22 01:24:03;;;;;;;21.08;3.65;;;6.30;99.90;;;;;;4135157;28;20038;-67
2021/03/22 01:26:09;;;;;;;19.95;4.07;;;6.20;99.90;;;;;;4136488;28;20113;-67
2021/03/22 01:28:11;;;;;;;16.45;3.40;;;6.30;99.90;;;;;;4133036;28;20034;-67
2021/03/22 01:30:15;;;;;;;16.88;4.05;;;6.20;99.90;;;;;;4130000;28;20054;-67
2021/03/22 01:32:16;;;;;;;17.13;4.05;;;6.10;99.90;;;;;;4143717;28;20482;-67
2021/03/22 01:34:16;;;;;;;18.50;3.53;;;6.10;99.90;;;;;;4136817;28;20042;-67
2021/03/22 01:36:22;;;;;;;29.25;4.78;;;6.10;99.90;;;;;;4119413;28;20089;-67
2021/03/22 01:38:22;;;;;;;24.92;4.13;;;6.00;99.90;;;;;;4120940;28;20026;-67
2021/03/22 01:40:54;;;;;;;18.00;3.58;;;6.00;99.90;;;;;;4116921;28;20720;-67
2021/03/22 01:43:22;;;;;;;19.90;3.90;;;6.00;99.90;;;;;;4105852;28;20037;-67
2021/03/22 01:45:23;;;;;;;23.15;3.90;;;6.00;99.90;;;;;;4136208;28;20064;-66
2021/03/22 01:47:27;;;;;;;18.92;3.80;;;6.00;99.90;;;;;;4128331;28;20045;-67
2021/03/22 01:49:34;;;;;;;24.45;4.18;;;5.90;99.90;;;;;;4114488;28;20410;-67
2021/03/22 01:51:35;;;;;;;22.33;3.85;;;5.90;99.90;;;;;;4138450;28;20045;-67
2021/03/22 01:53:36;;;;;;;22.15;4.18;;;6.00;99.90;;;;;;4141595;28;20414;-67
2021/03/22 01:55:37;;;;;;;24.67;4.05;;;6.00;99.90;;;;;;4136343;28;20026;-67
2021/03/22 01:57:41;;;;;;;17.98;4.13;;;6.00;99.90;;;;;;4129206;28;20414;-67
2021/03/22 01:59:41;;;;;;;24.92;4.68;;;6.00;99.90;;;;;;4133248;28;20038;-67
2021/03/22 02:01:47;;;;;;;23.20;4.00;;;6.00;99.90;;;;;;4139170;28;20098;-67
2021/03/22 02:03:48;;;;;;;19.92;4.55;;;6.00;99.90;;;;;;4122790;28;20051;-67
2021/03/22 02:05:50;;;;;;;20.63;4.63;;;6.00;99.90;;;;;;4121230;28;20126;-67
2021/03/22 02:08:04;;;;;;;18.67;3.83;;;6.00;99.90;;;;;;4143671;28;20087;-67
2021/03/22 02:10:07;;;;;;;16.10;3.75;;;6.00;99.90;;;;;;4113513;28;20023;-67
2021/03/22 02:12:16;;;;;;;;;;;6.00;99.90;;;;;;4134133;28;20030;-67
2021/03/22 02:14:17;;;;;;;27.15;4.15;;;6.00;99.90;;;;;;4135435;28;19918;-67
2021/03/22 02:16:27;;;;;;;14.02;3.40;;;6.00;99.90;;;;;;4132806;28;20085;-67
2021/03/22 02:18:42;;;;;;;26.30;4.55;;;6.00;99.90;;;;;;4143410;28;20064;-67
2021/03/22 02:21:19;;;;;;;14.73;3.60;;;6.00;99.90;;;;;;4123014;28;20730;-67
2021/03/22 02:23:37;;;;;;;21.65;4.95;;;5.90;99.90;;;;;;4143108;28;20041;-67
2021/03/22 02:25:57;;;;;;;19.55;3.80;;;6.00;99.90;;;;;;4132235;28;20038;-67
2021/03/22 02:28:33;;;;;;;21.25;4.57;;;5.90;99.90;;;;;;4140416;28;20646;-67
2021/03/22 02:31:01;;;;;;;33.20;5.47;;;6.00;99.90;;;;;;4138094;28;20077;-67
2021/03/22 02:33:17;;;;;;;25.15;5.25;;;6.00;99.90;;;;;;4140828;28;20084;-67
2021/03/22 02:35:42;;;;;;;16.40;3.60;;;5.90;99.90;;;;;;4135612;28;20032;-67
2021/03/22 02:38:01;;;;;;;17.08;4.07;;;6.00;99.90;;;;;;4111768;28;20039;-67
2021/03/22 02:40:24;;;;;;;16.33;3.88;;;6.00;99.90;;;;;;4118305;28;20041;-67
2021/03/22 02:42:27;;;;;;;17.58;4.15;;;6.00;99.90;;;;;;4130890;28;20038;-67
2021/03/22 02:44:33;;;;;;;20.10;4.93;;;6.00;99.90;;;;;;4134866;28;20042;-67
2021/03/22 02:46:35;;;;;;;17.58;4.32;;;6.00;99.90;;;;;;4135661;28;20049;-67
2021/03/22 02:48:40;;;;;;;17.67;3.85;;;6.10;99.90;;;;;;4110306;28;20043;-67
2021/03/22 02:50:41;;;;;;;22.00;5.25;;;6.00;99.90;;;;;;4138544;28;20121;-67
2021/03/22 02:53:02;;;;;;;16.02;4.07;;;6.00;99.90;;;;;;4138387;28;20500;-67
2021/03/22 02:55:30;;;;;;;15.13;4.25;;;6.00;99.90;;;;;;4137732;28;20105;-67
2021/03/22 02:57:43;;;;;;;17.48;3.78;;;6.00;99.90;;;;;;4136690;28;20044;-67
2021/03/22 02:59:57;;;;;;;18.50;4.32;;;6.00;99.90;;;;;;4141397;28;20038;-67
2021/03/22 03:02:04;;;;;;;22.10;4.70;;;6.00;99.90;;;;;;4134383;28;20121;-67
2021/03/22 03:04:08;;;;;;;20.08;4.95;;;6.00;99.90;;;;;;4127654;28;20042;-67
2021/03/22 03:06:08;;;;;;;18.55;3.92;;;6.00;99.90;;;;;;4134746;28;20050;-67
2021/03/22 03:08:13;;;;;;;26.70;4.40;;;6.00;99.90;;;;;;4125280;28;20035;-67
2021/03/22 03:10:17;;;;;;;24.92;4.93;;;6.00;99.90;;;;;;4142269;28;20049;-67
2021/03/22 03:12:21;;;;;;;20.65;4.50;;;6.00;99.90;;;;;;4130025;28;20026;-67
2021/03/22 03:14:23;;;;;;;20.95;4.45;;;6.00;99.90;;;;;;4135363;28;20031;-67
2021/03/22 03:16:23;;;;;;;15.75;4.07;;;6.00;99.90;;;;;;4110052;28;20041;-67
2021/03/22 03:18:24;;;;;;;19.38;4.30;;;6.00;99.90;;;;;;4125445;28;20379;-67
2021/03/22 03:20:28;;;;;;;21.20;4.90;;;6.00;99.90;;;;;;4124328;28;20109;-67
2021/03/22 03:22:29;;;;;;;18.80;4.78;;;6.00;99.90;;;;;;4117380;28;20033;-67
2021/03/22 03:24:29;;;;;;;12.50;4.13;;;5.90;99.90;;;;;;4126894;28;20027;-67
2021/03/22 03:26:30;;;;;;;21.60;4.55;;;5.90;99.90;;;;;;4133515;28;20041;-67
2021/03/22 03:28:31;;;;;;;23.48;5.15;;;5.90;99.90;;;;;;4136311;28;20645;-67
2021/03/22 03:30:35;;;;;;;27.25;5.20;;;5.90;99.90;;;;;;4142510;28;20097;-67
2021/03/22 03:32:36;;;;;;;16.10;4.75;;;5.80;99.90;;;;;;4117038;28;20046;-67
2021/03/22 03:34:37;;;;;;;16.95;4.78;;;5.80;99.90;;;;;;4126005;28;20487;-67
2021/03/22 03:36:37;;;;;;;10.10;3.78;;;5.80;99.90;;;;;;4140567;28;20433;-67
2021/03/22 03:38:38;;;;;;;12.27;3.67;;;5.80;99.90;;;;;;4136806;28;20080;-67
2021/03/22 03:40:45;;;;;;;9.95;4.45;;;5.70;99.90;;;;;;4140138;28;20137;-67
2021/03/22 03:42:46;;;;;;;22.50;5.65;;;5.80;99.90;;;;;;4132378;28;20085;-67
2021/03/22 03:44:46;;;;;;;21.05;4.80;;;5.80;99.90;;;;;;4130741;28;20043;-67
2021/03/22 03:46:47;;;;;;;21.25;4.63;;;5.80;99.90;;;;;;4139246;28;20102;-67
2021/03/22 03:48:47;;;;;;;22.38;5.00;;;5.80;99.90;;;;;;4138743;28;20038;-69
2021/03/22 03:50:49;;;;;;;20.08;4.65;;;5.80;99.90;;;;;;4138419;28;20052;-69
2021/03/22 03:52:49;;;;;;;16.27;5.00;;;5.70;99.90;;;;;;4139067;28;20389;-68
2021/03/22 03:54:50;;;;;;;22.15;4.95;;;5.80;99.90;;;;;;4127038;28;20034;-68
2021/03/22 03:56:51;;;;;;;26.88;5.68;;;5.80;99.90;;;;;;4116269;28;20505;-69
2021/03/22 03:58:52;;;;;;;20.75;5.38;;;5.80;99.90;;;;;;4138069;28;20387;-69
2021/03/22 04:00:53;;;;;;;29.35;5.85;;;5.80;99.90;;;;;;4139888;28;20042;-68
2021/03/22 04:02:55;;;;;;;26.73;5.30;;;5.80;99.90;;;;;;4137887;28;20054;-69
2021/03/22 04:04:55;;;;;;;24.98;5.72;;;5.80;99.90;;;;;;4127159;28;20038;-67
2021/03/22 04:06:56;;;;;;;25.30;5.53;;;5.80;99.90;;;;;;4128601;28;20374;-67
2021/03/22 04:09:09;;;;;;;21.65;5.25;;;5.80;99.90;;;;;;4139392;28;20034;-67
2021/03/22 04:11:11;;;;;;;;;;;5.80;99.90;;;;;;4137043;28;20100;-67
2021/03/22 04:13:16;;;;;;;27.38;6.00;;;5.80;99.90;;;;;;4135017;28;19964;-67
2021/03/22 04:15:16;;;;;;;22.52;4.65;;;5.80;99.90;;;;;;4109664;28;20043;-67
2021/03/22 04:17:19;;;;;;;16.33;5.18;;;5.80;99.90;;;;;;4117046;28;20046;-67
2021/03/22 04:19:20;;;;;;;18.75;5.38;;;5.80;99.90;;;;;;4142755;28;20482;-67
2021/03/22 04:21:24;;;;;;;24.27;5.20;;;5.80;99.90;;;;;;4123388;28;20030;-67
2021/03/22 04:23:29;;;;;;;24.60;5.68;;;5.80;99.90;;;;;;4133815;28;20061;-67
2021/03/22 04:25:30;;;;;;;18.88;5.53;;;5.80;99.90;;;;;;4142249;28;20026;-67
2021/03/22 04:27:31;;;;;;;18.50;5.15;;;5.80;99.90;;;;;;4134269;28;20074;-67
2021/03/22 04:29:32;;;;;;;20.80;5.70;;;5.80;99.90;;;;;;4137071;28;20158;-67
2021/03/22 04:31:33;;;;;;;25.23;5.22;;;5.80;99.90;;;;;;4140533;28;20041;-67
2021/03/22 04:33:34;;;;;;;21.02;5.15;;;5.80;99.90;;;;;;4127871;28;20042;-67
2021/03/22 04:35:35;;;;;;;16.10;5.13;;;5.90;99.90;;;;;;4142422;28;20371;-67
2021/03/22 04:37:40;;;;;;;15.35;4.88;;;5.80;99.90;;;;;;4091003;28;20046;-67
2021/03/22 04:39:40;;;;;;;21.27;5.32;;;5.90;99.90;;;;;;4136460;28;20052;-67
2021/03/22 04:41:45;;;;;;;15.95;5.10;;;5.90;99.90;;;;;;4122927;28;20035;-67
2021/03/22 04:43:52;;;;;;;20.27;5.18;;;5.90;99.90;;;;;;4136819;28;20038;-67
2021/03/22 04:45:53;;;;;;;23.87;6.23;;;5.90;99.90;;;;;;4135594;28;20113;-67
2021/03/22 04:47:53;;;;;;;22.40;5.47;;;5.90;99.90;;;;;;4125516;28;20413;-67
2021/03/22 04:49:54;;;;;;;17.95;5.70;;;5.90;99.90;;;;;;4090446;28;20042;-67
2021/03/22 04:51:55;;;;;;;16.75;5.63;;;5.90;99.90;;;;;;4131254;28;20030;-67
2021/03/22 04:53:56;;;;;;;20.85;6.30;;;5.90;99.90;;;;;;4134367;28;20413;-67
2021/03/22 04:55:57;;;;;;;19.25;6.03;;;5.90;99.90;;;;;;4107998;28;20462;-67
2021/03/22 04:57:57;;;;;;;21.92;5.72;;;5.90;99.90;;;;;;4136808;28;20036;-67
2021/03/22 04:59:59;;;;;;;22.42;6.20;;;5.90;99.90;;;;;;4140308;28;20037;-67
2021/03/22 05:01:59;;;;;;;20.73;5.95;;;5.90;99.90;;;;;;4136728;28;20092;-67
2021/03/22 05:04:00;;;;;;;20.85;6.35;;;5.90;99.90;;;;;;4128816;28;20098;-67
2021/03/22 05:06:02;;;;;;;25.30;6.85;;;5.90;99.90;;;;;;4142867;28;20398;-67
2021/03/22 05:08:05;;;;;;;26.20;6.38;;;5.80;99.90;;;;;;4136780;28;20046;-67
2021/03/22 05:10:07;;;;;;;;;;;5.80;99.90;;;;;;4116832;28;20054;-67
2021/03/22 05:12:09;;;;;;;25.00;6.47;;;5.80;99.90;;;;;;4120193;28;19914;-67
2021/03/22 05:14:10;;;;;;;25.48;7.28;;;5.70;99.90;;;;;;4112398;28;20502;-67
2021/03/22 05:16:13;;;;;;;31.90;7.93;;;5.70;99.90;;;;;;4137370;28;20045;-67
2021/03/22 05:18:15;;;;;;;29.55;7.18;;;5.60;99.90;;;;;;4143734;28;20034;-67
2021/03/22 05:20:31;;;;;;;43.08;7.75;;;5.60;99.90;;;;;;4137027;28;20038;-67
2021/03/22 05:22:32;;;;;;;27.67;7.38;;;5.60;99.90;;;;;;4135614;28;20027;-67
2021/03/22 05:24:33;;;;;;;26.77;7.93;;;5.60;99.90;;;;;;4144826;28;20034;-67
2021/03/22 05:26:34;;;;;;;29.55;7.47;;;5.50;99.90;;;;;;4144174;28;20137;-67
2021/03/22 05:28:36;;;;;;;29.75;7.25;;;5.50;99.90;;;;;;4144444;28;20034;-67
2021/03/22 05:30:38;;;;;;;24.23;7.07;;;5.50;99.90;;;;;;4143878;28;20034;-67
2021/03/22 05:32:39;;;;;;;32.05;8.05;;;5.50;99.90;;;;;;4135642;28;20126;-67
2021/03/22 05:34:39;;;;;;;20.90;7.15;;;5.50;99.90;;;;;;4144803;28;20038;-66
2021/03/22 05:36:40;;;;;;;31.10;8.43;;;5.50;99.90;;;;;;4143414;28;20038;-67
2021/03/22 05:38:42;;;;;;;23.90;6.97;;;5.50;99.90;;;;;;4125760;28;20043;-66
2021/03/22 05:40:49;;;;;;;26.17;8.55;;;5.50;99.90;;;;;;4120132;28;20041;-67
2021/03/22 05:43:06;;;;;;;20.88;6.70;;;5.50;99.90;;;;;;4132905;28;20436;-67
2021/03/22 05:45:36;;;;;;;22.02;6.75;;;5.50;99.90;;;;;;4133880;28;20426;-67
2021/03/22 05:47:48;;;;;;;18.75;7.10;;;5.50;99.90;;;;;;4118069;28;20601;-67
2021/03/22 05:50:14;;;;;;;22.17;7.30;;;5.50;99.90;;;;;;4136771;28;20105;-67
2021/03/22 05:52:20;;;;;;;24.05;7.20;;;5.50;99.90;;;;;;4133740;28;20030;-67
2021/03/22 05:54:46;;;;;;;28.73;8.13;;;5.50;99.90;;;;;;4140445;28;20030;-67
2021/03/22 05:57:13;;;;;;;24.52;7.72;;;5.50;99.90;;;;;;4139865;28;20455;-66
2021/03/22 05:59:52;;;;;;;30.95;8.45;;;5.40;99.90;;;;;;4102963;28;20123;-67
2021/03/22 06:02:01;;;;;;;21.52;7.55;;;5.40;99.90;;;;;;4131664;28;20038;-67
2021/03/22 06:04:20;;;;;;;35.22;7.97;;;5.40;99.90;;;;;;4115356;28;20106;-67
2021/03/22 06:06:30;;;;;;;32.90;9.38;;;5.40;99.90;;;;;;4137789;28;20030;-67
2021/03/22 06:08:45;;;;;;;33.20;8.43;;;5.30;99.90;;;;;;4133538;28;20118;-67
2021/03/22 06:10:51;;;;;;;23.83;7.90;;;5.30;99.90;;;;;;4137296;28;20080;-67
2021/03/22 06:13:00;;;;;;;27.80;8.70;;;5.30;99.90;;;;;;4118747;28;20034;-67
2021/03/22 06:15:10;;;;;;;34.40;9.52;;;5.30;99.90;;;;;;4135413;28;20066;-67
2021/03/22 06:17:33;;;;;;;30.58;8.57;;;5.30;99.90;;;;;;4136033;28;20100;-67
2021/03/22 06:19:38;;;;;;;33.40;9.23;;;5.30;99.90;;;;;;4140586;28;20030;-68
2021/03/22 06:21:41;;;;;;;31.85;9.00;;;5.30;99.90;;;;;;4132025;28;20049;-68
2021/03/22 06:23:45;;;;;;;27.88;8.35;;;5.30;99.90;;;;;;4112230;28;20089;-68
2021/03/22 06:25:45;;;;;;;28.55;9.23;;;5.30;99.90;;;;;;4119267;28;20054;-68
2021/03/22 06:27:53;;;;;;;33.75;10.38;;;5.30;99.90;;;;;;4118921;28;20575;-68
2021/03/22 06:29:56;;;;;;;22.77;8.35;;;5.30;99.90;;;;;;4117301;28;20537;-68
2021/03/22 06:32:23;;;;;;;28.63;8.13;;;5.30;99.90;;;;;;4111633;28;20042;-68
2021/03/22 06:34:45;;;;;;;29.90;9.70;;;5.30;99.90;;;;;;4107276;28;20042;-68
2021/03/22 06:36:46;;;;;;;32.53;9.85;;;5.30;99.90;;;;;;4098227;28;20046;-68
2021/03/22 06:39:10;;;;;;;35.70;9.48;;;5.30;99.90;;;;;;4129708;28;20038;-68
2021/03/22 06:41:31;;;;;;;24.42;9.57;;;5.40;99.90;;;;;;4134051;28;20145;-68
2021/03/22 06:43:32;;;;;;;27.27;8.85;;;5.40;99.90;;;;;;4136176;28;20450;-68
2021/03/22 06:45:35;;;;;;;30.70;9.40;;;5.40;99.90;;;;;;4137113;28;20045;-68
2021/03/22 06:47:35;;;;;;;31.05;9.48;;;5.40;99.90;;;;;;4139866;28;20092;-68
2021/03/22 06:49:40;;;;;;;26.13;9.35;;;5.50;99.90;;;;;;4136350;28;20042;-68
2021/03/22 06:51:40;;;;;;;27.80;9.95;;;5.50;99.90;;;;;;4134039;28;20061;-68
2021/03/22 06:53:46;;;;;;;26.10;8.38;;;5.60;99.90;;;;;;4113675;28;20057;-68
2021/03/22 06:55:46;;;;;;;22.80;8.25;;;5.60;99.90;;;;;;4118393;28;20042;-68
2021/03/22 06:57:51;;;;;;;24.95;8.70;;;5.70;99.90;;;;;;4138682;28;20104;-68
2021/03/22 07:00:13;;;;;;;25.33;8.80;;;5.80;99.90;;;;;;4136213;28;20041;-68
2021/03/22 07:02:22;;;;;;;23.70;6.90;;;5.80;99.90;;;;;;4133655;28;20038;-68
2021/03/22 07:04:30;;;;;;;17.00;6.68;;;5.90;99.90;;;;;;4137002;28;20150;-68
2021/03/22 07:06:30;;;;;;;23.90;7.03;;;5.90;99.90;;;;;;4120410;28;20132;-68
2021/03/22 07:08:39;;;;;;;18.48;6.70;;;6.00;99.90;;;;;;4133038;28;20061;-68
2021/03/22 07:10:43;;;;;;;13.75;5.85;;;6.00;99.90;;;;;;4134156;28;20710;-68
2021/03/22 07:12:43;;;;;;;15.70;5.63;;;6.10;99.90;;;;;;4135387;28;20033;-68
2021/03/22 07:14:44;;;;;;;15.73;5.00;;;6.10;99.90;;;;;;4118357;28;20502;-68
2021/03/22 07:17:00;;;;;;;11.10;5.18;;;6.20;99.90;;;;;;4132852;28;20032;-68
2021/03/22 07:19:20;;;;;;;14.07;5.47;;;6.20;99.90;;;;;;4139132;28;20045;-68
2021/03/22 07:21:22;;;;;;;12.20;4.93;;;6.20;99.90;;;;;;4137352;28;20434;-68
2021/03/22 07:23:22;;;;;;;16.00;5.20;;;6.30;99.90;;;;;;4135673;28;20022;-68
2021/03/22 07:25:39;;;;;;;22.27;5.80;;;6.40;99.90;;;;;;4136491;28;20025;-68
2021/03/22 07:27:50;;;;;;;23.35;5.63;;;6.40;99.90;;;;;;4133739;28;20042;-68
2021/03/22 07:30:20;;;;;;;16.98;4.47;;;6.50;99.90;;;;;;4133650;28;20038;-68
2021/03/22 07:32:24;;;;;;;15.13;5.32;;;6.50;99.90;;;;;;4138004;28;20033;-68
2021/03/22 07:34:37;;;;;;;12.95;5.10;;;6.60;99.90;;;;;;4116725;28;20039;-68
2021/03/22 07:36:47;;;;;;;19.83;5.53;;;6.60;99.90;;;;;;4134400;28;20039;-68
2021/03/22 07:38:51;;;;;;;24.67;7.38;;;6.70;99.90;;;;;;4117089;28;20118;-68
2021/03/22 07:40:53;;;;;;;17.30;6.30;;;6.70;99.90;;;;;;4129148;28;20439;-68
2021/03/22 07:43:20;;;;;;;;;;;6.70;99.90;;;;;;4140215;28;20038;-68
2021/03/22 07:45:49;;;;;;;24.83;7.85;;;6.80;99.90;;;;;;4115786;28;19996;-68
2021/03/22 07:48:02;;;;;;;25.13;7.90;;;6.80;99.90;;;;;;4118824;28;20149;-68
2021/03/22 07:50:21;;;;;;;25.45;8.38;;;6.80;99.90;;;;;;4128284;28;20033;-68
2021/03/22 07:53:02;;;;;;;20.85;7.78;;;6.90;99.90;;;;;;4131082;28;20442;-68
2021/03/22 07:55:32;;;;;;;26.63;8.13;;;6.90;99.90;;;;;;4107397;28;20332;-68
2021/03/22 07:57:51;;;;;;;22.85;8.32;;;6.90;99.90;;;;;;4118568;28;20040;-68
2021/03/22 08:00:02;;;;;;;23.60;7.60;;;6.90;99.90;;;;;;4135286;28;20534;-68
2021/03/22 08:02:27;;;;;;;20.33;7.97;;;6.90;99.90;;;;;;4134000;28;20386;-68
2021/03/22 08:04:42;;;;;;;30.80;8.60;;;7.10;99.90;;;;;;4133409;28;20108;-68
2021/03/22 08:07:03;;;;;;;19.67;7.93;;;7.20;99.90;;;;;;4134403;28;20049;-68
2021/03/22 08:09:40;;;;;;;24.17;7.63;;;7.30;99.90;;;;;;4135447;28;20042;-68
2021/03/22 08:12:00;;;;;;;29.15;8.80;;;7.40;99.90;;;;;;4117427;28;20039;-68
2021/03/22 08:14:23;;;;;;;25.20;7.22;;;7.50;99.90;;;;;;4121686;28;20388;-68
2021/03/22 08:17:01;;;;;;;17.88;8.18;;;7.60;99.90;;;;;;4118475;28;20089;-68
2021/03/22 08:19:11;;;;;;;24.30;7.43;;;7.70;99.90;;;;;;4128993;28;20096;-68
2021/03/22 08:21:34;;;;;;;21.48;6.97;;;7.70;99.90;;;;;;4134492;28;20057;-68
2021/03/22 08:24:10;;;;;;;18.50;6.07;;;7.60;99.90;;;;;;4119342;28;20038;-68
2021/03/22 08:26:49;;;;;;;27.42;10.93;;;7.60;99.90;;;;;;4117868;28;20418;-68
2021/03/22 08:29:14;;;;;;;21.98;6.88;;;7.60;99.90;;;;;;4077498;28;20035;-68
2021/03/22 08:31:54;;;;;;;17.58;6.28;;;7.50;99.90;;;;;;4125029;28;20042;-68
2021/03/22 08:34:01;;;;;;;21.73;6.68;;;7.60;99.90;;;;;;4139146;28;20034;-68
2021/03/22 08:36:15;;;;;;;24.35;6.35;;;7.60;99.90;;;;;;4135873;28;20121;-68
2021/03/22 08:38:38;;;;;;;20.55;6.55;;;7.60;99.90;;;;;;4135484;28;20037;-68
2021/03/22 08:40:55;;;;;;;21.48;7.25;;;7.60;99.90;;;;;;4138786;28;20045;-68
2021/03/22 08:43:01;;;;;;;14.45;5.32;;;7.60;99.90;;;;;;4136822;28;20634;-68
2021/03/22 08:45:37;;;;;;;25.10;6.80;;;7.50;99.90;;;;;;4139286;28;20042;-68
2021/03/22 08:47:55;;;;;;;18.38;5.50;;;7.50;99.90;;;;;;4104733;28;20043;-68
2021/03/22 08:49:58;;;;;;;15.95;5.90;;;7.50;99.90;;;;;;4136429;28;20042;-68
2021/03/22 08:52:02;;;;;;;19.42;5.50;;;7.60;99.90;;;;;;4136382;28;20041;-68
2021/03/22 08:54:03;;;;;;;15.00;5.72;;;7.60;99.90;;;;;;4123375;28;20150;-68
2021/03/22 08:56:24;;;;;;;14.30;5.35;;;7.70;99.90;;;;;;4137868;28;20057;-68
2021/03/22 08:58:28;;;;;;;20.25;5.38;;;7.70;99.90;;;;;;4136004;28;20054;-68
2021/03/22 09:00:37;;;;;;;15.23;5.18;;;7.80;99.90;;;;;;4117063;28;20608;-68
2021/03/22 09:02:39;;;;;;;13.63;4.55;;;7.80;99.90;;;;;;4139042;28;20038;-68
2021/03/22 09:04:41;;;;;;;17.17;5.40;;;7.80;99.90;;;;;;4140655;28;21654;-68
2021/03/22 09:06:59;;;;;;;10.43;4.80;;;7.90;99.90;;;;;;4132224;28;20093;-68
2021/03/22 09:08:59;;;;;;;12.20;4.18;;;7.80;99.90;;;;;;4145101;28;20034;-68
2021/03/22 09:11:25;;;;;;;13.75;3.65;;;7.80;99.90;;;;;;4137301;28;20030;-68
2021/03/22 09:13:30;;;;;;;15.20;3.72;;;7.80;99.90;;;;;;4128087;28;20035;-68
2021/03/22 09:15:41;;;;;;;11.82;3.78;;;7.90;99.90;;;;;;4126029;28;20030;-67
2021/03/22 09:17:48;;;;;;;11.90;4.07;;;8.00;99.90;;;;;;4126112;28;20054;-68
2021/03/22 09:20:09;;;;;;;8.60;3.28;;;8.10;99.90;;;;;;4122923;28;20505;-68
2021/03/22 09:22:13;;;;;;;8.50;3.20;;;8.40;99.90;;;;;;4095086;28;20038;-67
2021/03/22 09:24:32;;;;;;;9.35;3.45;;;8.60;99.90;;;;;;4141132;28;20050;-67
2021/03/22 09:26:52;;;;;;;9.05;3.08;;;8.80;99.90;;;;;;4139474;28;20046;-68
2021/03/22 09:29:31;;;;;;;6.70;2.88;;;9.10;99.90;;;;;;4138086;28;20084;-67
2021/03/22 09:31:37;;;;;;;10.25;2.90;;;9.30;99.90;;;;;;4142843;28;20041;-67
2021/03/22 09:33:59;;;;;;;7.65;2.40;;;9.50;99.90;;;;;;4141881;28;20354;-68
2021/03/22 09:36:09;;;;;;;4.10;2.03;;;9.60;99.90;;;;;;4130925;28;20410;-67
2021/03/22 09:38:33;;;;;;;5.55;1.92;;;9.60;99.90;;;;;;4141255;28;20045;-67
2021/03/22 09:40:33;;;;;;;6.88;2.22;;;9.80;99.90;;;;;;4141540;28;20379;-67
2021/03/22 09:42:34;;;;;;;4.95;2.10;;;9.80;99.90;;;;;;4140521;28;20117;-67
2021/03/22 09:44:53;;;;;;;9.68;2.60;;;9.70;99.90;;;;;;4143049;28;20077;-67
2021/03/22 09:47:15;;;;;;;6.63;2.55;;;9.60;99.90;;;;;;4138524;28;20046;-67
2021/03/22 09:49:20;;;;;;;4.90;1.98;;;9.40;99.90;;;;;;4142483;28;20040;-67
2021/03/22 09:51:23;;;;;;;6.22;2.03;;;9.20;99.90;;;;;;4139602;28;20034;-67
2021/03/22 09:53:27;;;;;;;6.00;1.50;;;9.20;99.90;;;;;;4132852;28;20037;-67
2021/03/22 09:55:28;;;;;;;3.85;1.60;;;9.00;99.90;;;;;;4128086;28;20044;-67
2021/03/22 09:57:39;;;;;;;6.53;1.90;;;9.00;99.90;;;;;;4140392;28;20121;-67
2021/03/22 10:00:00;;;;;;;4.00;1.75;;;8.90;99.90;;;;;;4138265;28;20520;-67
2021/03/22 10:02:30;;;;;;;3.67;1.63;;;8.80;99.90;;;;;;4140556;28;20030;-67
2021/03/22 10:04:32;;;;;;;5.25;1.73;;;8.80;99.90;;;;;;4142368;28;20125;-67
2021/03/22 10:06:52;;;;;;;4.50;1.67;;;8.80;99.90;;;;;;4131132;28;20055;-67
2021/03/22 10:08:53;;;;;;;7.95;2.65;;;8.80;99.90;;;;;;4142528;28;20034;-67
2021/03/22 10:11:01;;;;;;;5.25;2.08;;;8.80;99.90;;;;;;4141296;28;20030;-67
2021/03/22 10:13:10;;;;;;;7.47;2.30;;;8.70;99.90;;;;;;4140408;28;20029;-67
2021/03/22 10:15:13;;;;;;;7.50;2.50;;;8.60;99.90;;;;;;4141962;28;20026;-67
2021/03/22 10:17:26;;;;;;;16.25;3.30;;;8.60;99.90;;;;;;4133107;28;20121;-67
2021/03/22 10:19:30;;;;;;;6.25;2.38;;;8.60;99.90;;;;;;4143019;28;20033;-67
2021/03/22 10:21:34;;;;;;;5.95;2.03;;;8.50;99.90;;;;;;4142681;28;20050;-67
2021/03/22 10:23:45;;;;;;;7.32;2.30;;;8.50;99.90;;;;;;4139847;28;20117;-67
2021/03/22 10:25:47;;;;;;;12.15;2.60;;;8.40;99.90;;;;;;4138997;28;20076;-67
2021/03/22 10:27:58;;;;;;;;;;;8.50;99.90;;;;;;4139564;28;20116;-67
2021/03/22 10:30:11;;;;;;;7.15;2.13;;;8.50;99.90;;;;;;4141317;28;19939;-67
2021/03/22 10:32:17;;;;;;;5.40;1.80;;;8.50;99.90;;;;;;4138387;28;20029;-67
2021/03/22 10:34:25;;;;;;;4.60;1.67;;;8.50;99.90;;;;;;4139887;28;20053;-67
2021/03/22 10:36:33;;;;;;;7.13;1.83;;;8.50;99.90;;;;;;4124517;28;20034;-67
2021/03/22 10:38:36;;;;;;;4.13;1.70;;;8.50;99.90;;;;;;4121479;28;20038;-67
2021/03/22 10:40:40;;;;;;;6.90;2.10;;;8.50;99.90;;;;;;4134743;28;20101;-67
2021/03/22 10:42:40;;;;;;;3.85;1.67;;;8.50;99.90;;;;;;4137835;28;20062;-67
2021/03/22 10:44:42;;;;;;;5.55;1.70;;;8.60;99.90;;;;;;4138773;28;20387;-67
2021/03/22 10:46:44;;;;;;;8.32;2.40;;;8.60;99.90;;;;;;4133968;28;20095;-67
2021/03/22 10:48:57;;;;;;;11.05;2.50;;;8.70;99.90;;;;;;4115241;28;20105;-67
2021/03/22 10:50:58;;;;;;;;;;;8.70;99.90;;;;;;4131481;28;20026;-67
2021/03/22 10:53:15;;;;;;;4.90;1.87;;;8.70;99.90;;;;;;4142569;28;20521;-67
2021/03/22 10:55:29;;;;;;;3.30;1.45;;;8.70;99.90;;;;;;4140833;28;20050;-67
2021/03/22 10:57:39;;;;;;;7.55;2.58;;;8.80;99.90;;;;;;4138367;28;20042;-67
2021/03/22 10:59:47;;;;;;;5.50;1.70;;;8.90;99.90;;;;;;4136462;28;20033;-67
2021/03/22 11:01:51;;;;;;;6.68;2.65;;;9.00;99.90;;;;;;4123463;28;20158;-67
2021/03/22 11:04:02;;;;;;;9.73;2.65;;;9.00;99.90;;;;;;4135926;28;20033;-67
2021/03/22 11:06:13;;;;;;;6.72;2.00;;;9.00;99.90;;;;;;4137490;28;20030;-67
2021/03/22 11:08:29;;;;;;;;;;;8.90;99.90;;;;;;4141948;28;20041;-68
2021/03/22 11:10:34;;;;;;;4.13;1.73;;;8.90;99.90;;;;;;4140917;28;19936;-67